WET,Max TemperatureF,Mean TemperatureF,Min TemperatureF,Max Dew PointF,MeanDew PointF,Min DewpointF,Max Humidity, Mean Humidity, Min Humidity, Max Sea Level PressureIn, Mean Sea Level PressureIn, Min Sea Level PressureIn, Max VisibilityMiles, Mean VisibilityMiles, Min VisibilityMiles, Max Wind SpeedMPH, Mean Wind SpeedMPH, Max Gust SpeedMPH,PrecipitationIn, CloudCover, Events, WindDirDegrees
2012-9-1,90,74,57,70,61,52,100,73,19,29.96,29.91,29.83,4,3,0,17,3,,0.00,4,Fog,341
2012-9-2,83,74,65,68,65,61,94,75,45,29.95,29.91,29.88,5,4,3,9,7,,0.00,1,,250
2012-9-3,81,73,65,68,65,59,94,77,41,29.95,29.92,29.86,5,3,1,13,5,,0.00,2,,271
2012-9-4,80,72,64,68,64,61,94,76,50,29.92,29.86,29.83,5,4,3,13,8,,0.00,5,,239
2012-9-5,79,70,62,67,64,61,94,76,50,29.95,29.87,29.83,5,3,3,14,4,,0.00,4,,276
2012-9-6,80,70,60,68,64,58,100,81,50,30.04,29.95,29.89,5,4,2,12,3,,0.00,4,,297
2012-9-7,79,70,60,68,65,59,100,81,53,30.15,30.08,30.04,5,4,3,12,3,,0.00,2,,346
2012-9-8,79,68,58,68,62,57,100,82,50,30.15,30.12,30.09,5,3,0,12,2,,0.00,4,Fog,315
2012-9-9,79,69,59,66,62,57,94,78,46,30.16,30.10,30.04,5,4,1,13,3,,0.00,3,,333
2012-9-10,79,69,59,66,62,57,94,78,38,30.10,30.06,30.04,6,5,1,15,3,,0.00,2,,347
2012-9-11,78,69,60,66,62,59,94,79,47,30.09,30.04,30.00,5,4,2,15,4,,0.00,2,,357
2012-9-12,80,70,59,70,65,59,100,81,46,30.09,30.03,30.01,5,4,2,14,3,,0.00,3,,284
2012-9-13,80,72,64,70,67,63,94,82,57,30.09,30.02,29.95,5,4,1,12,5,,0.00,3,,260
2012-9-14,79,69,59,66,63,57,100,83,57,30.01,29.95,29.91,5,3,0,12,2,,0.00,3,Fog,330
2012-9-15,80,69,58,69,64,57,100,84,49,29.95,29.92,29.88,4,2,0,9,2,,0.00,3,Fog,304
2012-9-16,79,72,64,68,65,61,94,81,55,30.01,29.97,29.94,5,3,2,10,4,,0.00,2,,321
2012-9-17,79,70,62,66,64,61,100,83,57,30.00,29.95,29.92,4,2,0,15,3,,0.00,2,Fog,4
2012-9-18,77,70,62,68,66,61,96,83,61,30.04,29.97,29.92,4,3,1,13,3,,0.00,5,,262
2012-9-19,82,73,64,70,66,63,94,79,52,30.01,29.98,29.94,6,5,4,14,3,,0.00,3,,302
2012-9-20,79,70,62,68,66,63,100,83,59,29.98,29.93,29.89,5,4,0,14,3,,0.00,4,Fog,339
2012-9-21,79,70,60,68,64,59,100,81,59,30.01,29.97,29.92,5,4,2,13,2,,0.00,3,,355
2012-9-22,85,72,60,68,63,59,100,80,48,29.99,29.95,29.91,5,4,1,13,2,,0.00,1,,356
2012-9-23,85,72,60,70,63,57,94,77,36,30.12,30.01,29.95,5,4,3,13,3,,0.00,3,,312
2012-9-24,84,72,59,68,66,63,94,79,52,30.13,30.07,30.01,6,4,3,17,5,,0.00,4,Rain,23
2012-9-25,81,70,58,63,59,54,94,72,33,30.07,29.98,29.92,6,5,3,9,2,,0.00,3,,326
2012-9-26,81,70,59,65,61,57,94,75,41,29.92,29.85,29.80,5,4,4,13,3,,0.00,6,,270
2012-9-27,79,69,59,68,65,62,94,80,46,29.89,29.80,29.74,5,4,3,20,6,,0.04,5,Rain,235
2012-9-28,73,68,62,64,59,54,94,75,48,29.98,29.91,29.83,6,4,3,22,10,32,0.24,3,Rain-Thunderstorm,220
2012-9-29,72,67,62,66,62,57,94,86,73,30.10,30.01,29.95,5,4,3,18,13,,0.20,4,Rain-Thunderstorm,217
2012-9-30,76,69,62,64,62,57,94,78,43,30.12,30.07,30.04,5,4,3,9,6,,0.00,4,,249